Time;durP1;ratioP1;P1;durP2;ratioP2;P2;SDS_P1;SDS_P2;PMS_P1;PMS_P2;Temp;Humidity;BMP_temperature;BMP_pressure;BME280_temperature;BME280_humidity;BME280_pressure;Samples;Min_cycle;Max_cycle;Signal;HPM_P1;HPM_P2
2021/10/28 00:13:27;;;;;;;35.65;15.95;;;;;;;;;;5074637;28;20557;-87
2021/10/28 00:15:57;;;;;;;30.77;15.23;;;;;;;;;;5074886;28;20032;-87
2021/10/28 00:18:41;;;;;;;30.13;17.40;;;;;;;;;;5073223;28;20033;-87
2021/10/28 00:21:08;;;;;;;31.45;16.17;;;;;;;;;;5074979;28;20104;-87
2021/10/28 00:23:41;;;;;;;28.73;15.43;;;;;;;;;;5073509;28;20027;-86
2021/10/28 00:26:08;;;;;;;30.75;15.32;;;;;;;;;;5074687;28;20066;-87
2021/10/28 00:28:35;;;;;;;30.98;15.15;;;;;;;;;;5073224;28;20028;-87
2021/10/28 00:31:01;;;;;;;39.35;16.40;;;;;;;;;;5077665;28;20063;-87
2021/10/28 00:33:26;;;;;;;32.65;17.92;;;;;;;;;;5074533;28;20444;-87
2021/10/28 00:35:51;;;;;;;32.10;17.20;;;;;;;;;;5073042;28;20032;-87
2021/10/28 00:38:17;;;;;;;28.65;15.95;;;;;;;;;;5072964;28;20076;-87
2021/10/28 00:40:42;;;;;;;31.75;15.95;;;;;;;;;;5073932;28;20085;-88
2021/10/28 00:43:08;;;;;;;29.80;15.85;;;;;;;;;;5075928;28;20035;-87
2021/10/28 00:45:33;;;;;;;38.95;16.83;;;;;;;;;;5074088;28;20075;-87
2021/10/28 00:47:58;;;;;;;30.55;16.60;;;;;;;;;;5072824;28;20024;-87
2021/10/28 00:50:24;;;;;;;27.55;16.02;;;;;;;;;;5072876;28;20027;-86
2021/10/28 00:52:50;;;;;;;30.85;16.23;;;;;;;;;;5072697;28;20404;-87
2021/10/28 00:55:15;;;;;;;34.80;16.75;;;;;;;;;;5074242;28;20022;-88
2021/10/28 00:57:41;;;;;;;33.75;15.35;;;;;;;;;;5072540;28;20132;-87
2021/10/28 01:00:07;;;;;;;32.88;16.17;;;;;;;;;;5073962;28;20073;-87
2021/10/28 01:02:32;;;;;;;44.28;16.98;;;;;;;;;;5073642;28;20063;-87
2021/10/28 01:04:59;;;;;;;39.42;15.73;;;;;;;;;;5075917;28;20051;-87
2021/10/28 01:07:25;;;;;;;30.50;16.98;;;;;;;;;;5072588;28;20052;-86
2021/10/28 01:09:50;;;;;;;42.92;17.17;;;;;;;;;;5073853;28;20402;-87
2021/10/28 01:12:16;;;;;;;34.65;17.08;;;;;;;;;;5072420;28;20029;-86
2021/10/28 01:14:46;;;;;;;31.05;15.70;;;;;;;;;;5076180;28;20032;-87
2021/10/28 01:17:11;;;;;;;35.45;18.02;;;;;;;;;;5073614;28;20107;-87
2021/10/28 01:19:37;;;;;;;27.77;16.15;;;;;;;;;;5072584;28;20060;-87
2021/10/28 01:22:04;;;;;;;30.88;17.15;;;;;;;;;;5073512;28;20043;-87
2021/10/28 01:24:30;;;;;;;26.00;14.82;;;;;;;;;;5091410;28;20037;-86
2021/10/28 01:27:05;;;;;;;35.67;16.40;;;;;;;;;;5073596;28;20025;-87
2021/10/28 01:29:32;;;;;;;34.97;16.27;;;;;;;;;;5076513;28;20024;-87
2021/10/28 01:31:58;;;;;;;33.95;17.40;;;;;;;;;;5071439;28;20048;-86
2021/10/28 01:34:23;;;;;;;35.05;18.23;;;;;;;;;;5075434;28;20544;-86
2021/10/28 01:36:49;;;;;;;36.95;18.50;;;;;;;;;;5074544;28;20468;-87
2021/10/28 01:39:23;;;;;;;40.13;18.45;;;;;;;;;;5073225;28;20028;-87
2021/10/28 01:41:49;;;;;;;37.25;18.23;;;;;;;;;;5071937;28;20031;-87
2021/10/28 01:44:14;;;;;;;37.17;17.17;;;;;;;;;;5079003;28;20028;-87
2021/10/28 01:46:40;;;;;;;36.72;18.15;;;;;;;;;;5073336;28;20078;-87
2021/10/28 01:49:06;;;;;;;38.88;17.70;;;;;;;;;;5071916;28;20100;-87
2021/10/28 01:51:31;;;;;;;31.77;17.20;;;;;;;;;;5071983;28;20035;-87
2021/10/28 01:53:56;;;;;;;31.35;16.48;;;;;;;;;;5073399;28;20133;-87
2021/10/28 01:56:22;;;;;;;29.55;16.35;;;;;;;;;;5073795;28;20056;-86
2021/10/28 01:58:51;;;;;;;39.17;17.23;;;;;;;;;;5072151;28;20029;-86
2021/10/28 02:01:17;;;;;;;35.08;16.10;;;;;;;;;;5079609;28;20439;-87
2021/10/28 02:03:42;;;;;;;31.02;16.05;;;;;;;;;;5073140;28;20056;-87
2021/10/28 02:06:07;;;;;;;33.28;15.52;;;;;;;;;;5077723;28;20009;-87
2021/10/28 02:08:33;;;;;;;27.58;14.88;;;;;;;;;;5082471;28;20117;-87
2021/10/28 02:10:58;;;;;;;32.00;16.58;;;;;;;;;;5072043;28;20021;-86
2021/10/28 02:13:24;;;;;;;41.25;16.85;;;;;;;;;;5075125;28;20028;-86
2021/10/28 02:15:49;;;;;;;35.13;16.60;;;;;;;;;;5073176;28;20028;-86
2021/10/28 02:18:15;;;;;;;35.35;16.60;;;;;;;;;;5071640;28;20051;-87
2021/10/28 02:20:40;;;;;;;32.42;14.45;;;;;;;;;;5073076;28;20462;-86
2021/10/28 02:23:07;;;;;;;35.78;15.73;;;;;;;;;;5073049;28;20040;-87
2021/10/28 02:25:32;;;;;;;33.10;14.93;;;;;;;;;;5075598;28;20038;-87
2021/10/28 02:27:58;;;;;;;29.70;15.10;;;;;;;;;;5073423;28;20016;-87
2021/10/28 02:30:24;;;;;;;30.63;17.17;;;;;;;;;;5072945;28;20054;-86
2021/10/28 02:32:50;;;;;;;28.77;14.25;;;;;;;;;;5082425;28;20032;-87
2021/10/28 02:35:16;;;;;;;31.90;15.10;;;;;;;;;;5073606;28;20077;-86
2021/10/28 02:37:42;;;;;;;29.58;14.38;;;;;;;;;;5073772;28;20077;-86
2021/10/28 02:40:09;;;;;;;30.33;14.25;;;;;;;;;;5074795;28;20017;-86
2021/10/28 02:42:34;;;;;;;34.83;14.85;;;;;;;;;;5077525;28;20078;-86
2021/10/28 02:45:00;;;;;;;30.38;14.70;;;;;;;;;;5077238;28;20029;-86
2021/10/28 02:47:25;;;;;;;32.75;15.55;;;;;;;;;;5075484;28;20020;-87
2021/10/28 02:49:51;;;;;;;29.25;14.60;;;;;;;;;;5095251;28;20020;-87
2021/10/28 02:52:16;;;;;;;37.58;15.52;;;;;;;;;;5096706;28;20073;-86
2021/10/28 02:54:42;;;;;;;32.17;14.93;;;;;;;;;;5092553;28;20119;-86
2021/10/28 02:57:07;;;;;;;35.45;15.00;;;;;;;;;;5078760;28;20024;-87
2021/10/28 02:59:34;;;;;;;38.47;16.30;;;;;;;;;;5076564;28;20029;-87
2021/10/28 03:01:59;;;;;;;35.13;15.80;;;;;;;;;;5077401;28;20032;-87
2021/10/28 03:04:25;;;;;;;35.47;16.08;;;;;;;;;;5075577;28;20141;-86
2021/10/28 03:06:51;;;;;;;30.60;14.48;;;;;;;;;;5078751;28;20028;-87
2021/10/28 03:09:23;;;;;;;33.00;15.00;;;;;;;;;;5077709;28;20024;-87
2021/10/28 03:11:51;;;;;;;35.03;15.50;;;;;;;;;;5084249;28;20024;-86
2021/10/28 03:14:21;;;;;;;36.03;14.18;;;;;;;;;;5079612;28;20032;-87
2021/10/28 03:17:05;;;;;;;30.27;14.30;;;;;;;;;;5074958;28;20135;-87
2021/10/28 03:19:44;;;;;;;49.50;16.30;;;;;;;;;;5074682;28;20020;-87
2021/10/28 03:27:39;;;;;;;31.38;15.82;;;;;;;;;;5076343;28;20165;-87
2021/10/28 03:30:06;;;;;;;34.15;15.95;;;;;;;;;;5076029;28;20028;-86
2021/10/28 03:32:32;;;;;;;29.42;15.25;;;;;;;;;;5074340;28;20020;-87
2021/10/28 03:34:58;;;;;;;30.17;13.70;;;;;;;;;;5078837;28;20398;-87
2021/10/28 03:37:48;;;;;;;29.08;14.05;;;;;;;;;;5074503;28;20036;-87
2021/10/28 03:43:09;;;;;;;31.50;13.15;;;;;;;;;;5075928;28;20486;-87
2021/10/28 04:21:37;;;;;;;36.97;15.82;;;;;;;;;;5075333;28;20035;-86
2021/10/28 04:29:07;;;;;;;39.42;16.67;;;;;;;;;;5075313;28;20055;-86
2021/10/28 04:31:36;;;;;;;35.80;14.63;;;;;;;;;;5073445;28;20024;-86
2021/10/28 04:34:05;;;;;;;39.38;17.42;;;;;;;;;;5077793;28;20029;-86
2021/10/28 04:36:31;;;;;;;42.22;17.08;;;;;;;;;;5073878;28;20464;-87
2021/10/28 04:38:58;;;;;;;41.35;16.98;;;;;;;;;;5077548;28;20104;-87
2021/10/28 04:41:24;;;;;;;32.08;15.15;;;;;;;;;;5073050;28;20483;-86
2021/10/28 04:43:50;;;;;;;36.35;16.83;;;;;;;;;;5074281;28;20039;-86
2021/10/28 04:46:16;;;;;;;42.58;17.15;;;;;;;;;;5076023;28;20021;-85
2021/10/28 04:48:41;;;;;;;33.33;15.80;;;;;;;;;;5086379;28;20502;-86
2021/10/28 04:51:06;;;;;;;32.85;16.13;;;;;;;;;;5080991;28;20028;-86
2021/10/28 04:53:32;;;;;;;30.13;17.10;;;;;;;;;;5075151;28;20055;-86
2021/10/28 04:55:57;;;;;;;32.97;16.63;;;;;;;;;;5075196;28;20086;-87
2021/10/28 04:58:23;;;;;;;50.80;18.75;;;;;;;;;;5073074;28;20035;-87
2021/10/28 05:00:49;;;;;;;44.33;17.55;;;;;;;;;;5072934;28;20025;-86
2021/10/28 05:03:15;;;;;;;41.47;17.83;;;;;;;;;;5074529;28;20571;-87
2021/10/28 05:05:40;;;;;;;41.05;18.35;;;;;;;;;;5072056;28;20059;-86
2021/10/28 05:08:05;;;;;;;47.65;19.55;;;;;;;;;;5080137;28;20093;-86
2021/10/28 05:10:33;;;;;;;43.90;18.02;;;;;;;;;;5072834;28;20032;-87
2021/10/28 05:12:58;;;;;;;51.05;19.17;;;;;;;;;;5072531;28;20116;-86
2021/10/28 05:15:24;;;;;;;40.65;18.95;;;;;;;;;;5074302;28;20151;-87
2021/10/28 05:17:49;;;;;;;44.95;19.50;;;;;;;;;;5075233;28;20020;-87
2021/10/28 05:20:15;;;;;;;43.17;18.95;;;;;;;;;;5084746;28;20395;-87
2021/10/28 05:22:40;;;;;;;43.13;18.48;;;;;;;;;;5073974;28;20476;-87
2021/10/28 05:25:06;;;;;;;39.35;18.92;;;;;;;;;;5072939;28;20558;-87
2021/10/28 05:27:31;;;;;;;40.50;18.52;;;;;;;;;;5076285;28;20027;-86
2021/10/28 05:29:56;;;;;;;69.03;20.95;;;;;;;;;;5074995;28;20108;-87
2021/10/28 05:32:23;;;;;;;85.78;24.35;;;;;;;;;;5073722;28;20491;-86
2021/10/28 05:34:48;;;;;;;48.92;18.95;;;;;;;;;;5081241;28;20051;-86
2021/10/28 05:37:15;;;;;;;40.65;17.58;;;;;;;;;;5093872;28;20074;-86
2021/10/28 05:39:40;;;;;;;44.75;18.10;;;;;;;;;;5092714;28;20038;-87
2021/10/28 05:42:06;;;;;;;62.38;19.95;;;;;;;;;;5093078;28;20024;-87
2021/10/28 05:44:31;;;;;;;40.58;18.65;;;;;;;;;;5093471;28;20032;-87
2021/10/28 05:46:57;;;;;;;37.08;17.27;;;;;;;;;;5093230;28;20459;-87
2021/10/28 05:49:22;;;;;;;53.95;19.10;;;;;;;;;;5094669;28;20051;-86
2021/10/28 05:51:49;;;;;;;47.35;19.13;;;;;;;;;;5078337;28;20032;-87
2021/10/28 05:54:14;;;;;;;44.75;21.92;;;;;;;;;;5072678;28;20032;-86
2021/10/28 05:56:40;;;;;;;48.33;20.98;;;;;;;;;;5072791;28;20028;-87
2021/10/28 05:59:05;;;;;;;45.83;20.17;;;;;;;;;;5072598;28;20024;-87
2021/10/28 06:01:30;;;;;;;49.13;21.77;;;;;;;;;;5071291;28;20142;-87
2021/10/28 06:03:56;;;;;;;43.08;20.67;;;;;;;;;;5072519;28;20421;-86
2021/10/28 06:06:21;;;;;;;43.50;20.92;;;;;;;;;;5073220;28;20059;-87
2021/10/28 06:08:47;;;;;;;49.80;20.55;;;;;;;;;;5072763;28;20021;-86
2021/10/28 06:11:15;;;;;;;47.70;20.75;;;;;;;;;;5075319;28;20060;-88
2021/10/28 06:13:48;;;;;;;49.95;20.08;;;;;;;;;;5092476;28;20079;-87
2021/10/28 06:16:13;;;;;;;;;;;;;;;;;;5092159;28;20441;-86
2021/10/28 06:18:41;;;;;;;43.42;19.48;;;;;;;;;;5096149;28;19907;-87
2021/10/28 06:21:09;;;;;;;46.58;19.00;;;;;;;;;;5091127;28;20081;-87
2021/10/28 06:23:34;;;;;;;33.30;18.65;;;;;;;;;;5101577;28;20032;-87
2021/10/28 06:26:00;;;;;;;39.45;17.63;;;;;;;;;;5109368;28;20020;-87
2021/10/28 06:28:25;;;;;;;37.58;17.55;;;;;;;;;;5084716;28;20123;-87
2021/10/28 06:30:50;;;;;;;47.17;18.75;;;;;;;;;;5075458;28;20027;-87
2021/10/28 06:33:21;;;;;;;51.10;19.55;;;;;;;;;;5076589;28;20247;-87
2021/10/28 06:35:47;;;;;;;48.30;19.38;;;;;;;;;;5075295;28;20024;-86
2021/10/28 06:38:14;;;;;;;41.35;20.08;;;;;;;;;;5082537;28;20029;-86
2021/10/28 06:40:39;;;;;;;42.75;19.95;;;;;;;;;;5095505;28;20467;-87
2021/10/28 06:43:05;;;;;;;49.28;19.70;;;;;;;;;;5079883;28;20012;-87
2021/10/28 06:45:31;;;;;;;48.03;20.48;;;;;;;;;;5099171;28;20024;-85
2021/10/28 06:47:57;;;;;;;46.65;21.60;;;;;;;;;;5095106;28;20410;-86
2021/10/28 06:50:27;;;;;;;56.85;24.10;;;;;;;;;;5076581;28;20525;-86
2021/10/28 06:53:11;;;;;;;62.75;24.75;;;;;;;;;;5076283;28;20025;-86
2021/10/28 06:55:52;;;;;;;62.53;22.92;;;;;;;;;;5075943;28;20029;-86
2021/10/28 07:03:28;;;;;;;52.53;22.85;;;;;;;;;;5078653;28;20031;-86
2021/10/28 07:06:04;;;;;;;53.92;23.80;;;;;;;;;;5094706;28;20032;-86
2021/10/28 07:08:30;;;;;;;51.28;23.73;;;;;;;;;;5092819;28;20074;-86
2021/10/28 07:10:57;;;;;;;49.58;24.02;;;;;;;;;;5075300;28;20020;-88
2021/10/28 07:13:28;;;;;;;55.05;23.38;;;;;;;;;;5075173;28;20036;-86
2021/10/28 07:16:17;;;;;;;55.60;23.85;;;;;;;;;;5075395;28;20462;-86
2021/10/28 07:18:49;;;;;;;59.83;22.95;;;;;;;;;;5075229;28;20025;-86
2021/10/28 07:24:30;;;;;;;56.95;24.38;;;;;;;;;;5030689;28;20059;-86
2021/10/28 07:35:26;;;;;;;52.45;24.35;;;;;;;;;;5003211;28;20109;-86
2021/10/28 08:13:53;;;;;;;41.25;20.13;;;;;;;;;;5088286;28;20047;-87
2021/10/28 08:18:50;;;;;;;52.83;21.80;;;;;;;;;;5094671;28;20027;-87
2021/10/28 08:23:56;;;;;;;36.22;18.50;;;;;;;;;;5094281;28;20114;-86
2021/10/28 08:29:20;;;;;;;41.40;20.50;;;;;;;;;;5093968;28;20031;-86
2021/10/28 08:31:47;;;;;;;41.67;19.33;;;;;;;;;;5093683;28;20032;-86
2021/10/28 08:34:13;;;;;;;42.92;18.10;;;;;;;;;;5093959;28;20157;-86
2021/10/28 08:36:42;;;;;;;36.20;17.40;;;;;;;;;;5093710;28;20099;-87
2021/10/28 08:39:07;;;;;;;33.17;17.17;;;;;;;;;;5093976;28;20399;-86
2021/10/28 08:41:35;;;;;;;31.75;16.50;;;;;;;;;;5093701;28;20032;-88
2021/10/28 08:44:01;;;;;;;31.75;16.27;;;;;;;;;;5092490;28;20051;-87
2021/10/28 08:46:28;;;;;;;30.90;15.68;;;;;;;;;;5093764;28;20028;-88
2021/10/28 08:49:02;;;;;;;30.77;15.77;;;;;;;;;;5092809;28;20054;-87
2021/10/28 08:51:42;;;;;;;30.75;15.20;;;;;;;;;;5093360;28;20047;-88
2021/10/28 08:57:11;;;;;;;27.50;16.42;;;;;;;;;;5094247;28;20042;-88
2021/10/28 09:00:07;;;;;;;26.63;15.50;;;;;;;;;;5093222;28;20024;-88
2021/10/28 09:19:45;;;;;;;27.05;15.23;;;;;;;;;;5094371;28;20418;-88
2021/10/28 09:25:06;;;;;;;29.92;14.82;;;;;;;;;;5093358;28;20027;-88
2021/10/28 09:27:44;;;;;;;26.67;14.25;;;;;;;;;;5093225;28;20028;-88
2021/10/28 09:30:15;;;;;;;28.77;15.23;;;;;;;;;;5091781;28;20500;-80
2021/10/28 09:32:45;;;;;;;33.28;14.90;;;;;;;;;;5092896;28;20024;-79
2021/10/28 09:43:36;;;;;;;32.55;16.00;;;;;;;;;;5100061;28;20035;-87
2021/10/28 09:44:20;;;;;;;42.50;17.05;;;;;;;;;;5113591;28;20039;-87
2021/10/28 09:51:59;;;;;;;26.98;14.60;;;;;;;;;;5113236;28;20059;-87
2021/10/28 10:00:16;;;;;;;35.40;14.85;;;;;;;;;;5093691;28;20085;-87
2021/10/28 10:02:44;;;;;;;25.45;14.98;;;;;;;;;;5096408;28;20038;-86
2021/10/28 10:05:24;;;;;;;28.98;14.57;;;;;;;;;;5092967;28;20020;-87
2021/10/28 10:07:53;;;;;;;38.85;17.10;;;;;;;;;;5092279;28;20043;-87
2021/10/28 10:10:20;;;;;;;24.23;14.63;;;;;;;;;;5091925;28;20027;-86
2021/10/28 10:12:47;;;;;;;30.27;13.27;;;;;;;;;;5084627;28;20028;-86
2021/10/28 10:15:13;;;;;;;32.92;14.77;;;;;;;;;;5072542;28;20021;-86
2021/10/28 10:17:41;;;;;;;28.95;13.80;;;;;;;;;;5072744;28;20016;-86
2021/10/28 10:20:12;;;;;;;27.90;13.93;;;;;;;;;;5087410;28;20028;-86
2021/10/28 10:25:33;;;;;;;25.13;14.88;;;;;;;;;;5093089;28;20035;-87
2021/10/28 11:06:13;;;;;;;20.38;9.07;;;;;;;;;;5117282;28;20114;-87
2021/10/28 11:21:10;;;;;;;22.58;8.55;;;;;;;;;;5097357;28;20074;-87
2021/10/28 11:26:55;;;;;;;14.82;7.22;;;;;;;;;;5096185;28;20436;-88
2021/10/28 12:25:15;;;;;;;17.67;7.57;;;;;;;;;;5104367;28;20034;-87
2021/10/28 12:53:10;;;;;;;13.43;5.88;;;;;;;;;;5092313;28;20036;-87
2021/10/28 13:04:07;;;;;;;10.15;5.50;;;;;;;;;;5095401;28;20031;-87
2021/10/28 14:21:19;;;;;;;6.82;3.00;;;;;;;;;;5096861;28;20074;-88
2021/10/28 14:34:44;;;;;;;8.52;3.15;;;;;;;;;;5098021;28;20031;-88
2021/10/28 15:27:39;;;;;;;16.15;3.95;;;;;;;;;;5078258;28;20028;-86
2021/10/28 15:28:25;;;;;;;6.53;2.67;;;;;;;;;;5098080;28;20092;-85
2021/10/28 15:36:03;;;;;;;11.98;2.75;;;;;;;;;;5079884;28;20028;-86
2021/10/28 15:41:15;;;;;;;12.82;3.05;;;;;;;;;;5075129;28;20484;-86
2021/10/28 15:52:44;;;;;;;10.77;3.55;;;;;;;;;;5053131;28;20041;-87
2021/10/28 15:57:12;;;;;;;18.03;3.83;;;;;;;;;;5090666;28;19915;-86
2021/10/28 16:24:34;;;;;;;7.25;4.05;;;;;;;;;;5071301;28;20036;-86
2021/10/28 16:27:02;;;;;;;10.35;4.22;;;;;;;;;;5094701;28;20089;-86
2021/10/28 16:29:27;;;;;;;8.65;4.25;;;;;;;;;;5102599;28;20020;-87
2021/10/28 16:31:53;;;;;;;10.73;4.80;;;;;;;;;;5088971;28;20086;-86
2021/10/28 16:34:19;;;;;;;11.60;4.65;;;;;;;;;;5075130;28;20503;-86
2021/10/28 16:36:47;;;;;;;7.20;4.10;;;;;;;;;;5074254;28;20059;-86
2021/10/28 16:39:14;;;;;;;12.07;5.40;;;;;;;;;;5073790;28;20032;-86
2021/10/28 16:41:45;;;;;;;12.93;6.13;;;;;;;;;;5072958;28;20027;-85
2021/10/28 16:44:12;;;;;;;17.42;6.93;;;;;;;;;;5074355;28;20024;-85
2021/10/28 16:46:38;;;;;;;18.40;6.68;;;;;;;;;;5074444;28;20121;-86
2021/10/28 16:49:05;;;;;;;29.10;10.13;;;;;;;;;;5084660;28;20028;-88
2021/10/28 16:51:30;;;;;;;31.05;13.43;;;;;;;;;;5112114;28;20059;-86
2021/10/28 16:53:56;;;;;;;31.65;11.85;;;;;;;;;;5110363;28;20032;-87
2021/10/28 16:56:21;;;;;;;51.78;19.98;;;;;;;;;;5093593;28;20055;-86
2021/10/28 16:58:47;;;;;;;60.35;22.67;;;;;;;;;;5093533;28;20027;-86
2021/10/28 17:01:13;;;;;;;58.17;20.45;;;;;;;;;;5092785;28;20024;-86
2021/10/28 17:03:38;;;;;;;52.65;20.08;;;;;;;;;;5093045;28;20118;-86
2021/10/28 17:06:05;;;;;;;21.38;11.05;;;;;;;;;;5092214;28;20031;-86
2021/10/28 17:08:30;;;;;;;31.85;12.70;;;;;;;;;;5093011;28;20497;-86
2021/10/28 17:10:56;;;;;;;17.33;8.70;;;;;;;;;;5093574;28;20028;-86
2021/10/28 17:13:22;;;;;;;18.55;7.72;;;;;;;;;;5093227;28;20024;-86
2021/10/28 17:15:47;;;;;;;14.07;7.65;;;;;;;;;;5093577;28;20028;-87
2021/10/28 17:18:13;;;;;;;21.20;8.07;;;;;;;;;;5092246;28;20031;-86
2021/10/28 17:20:39;;;;;;;14.10;7.65;;;;;;;;;;5092384;28;20020;-86
2021/10/28 17:23:06;;;;;;;16.30;7.55;;;;;;;;;;5093978;28;20059;-87
2021/10/28 17:25:37;;;;;;;13.38;8.40;;;;;;;;;;5092466;28;20107;-86
2021/10/28 17:28:03;;;;;;;21.38;9.52;;;;;;;;;;5093660;28;20407;-86
2021/10/28 17:30:28;;;;;;;16.15;9.48;;;;;;;;;;5092939;28;20024;-86
2021/10/28 17:32:53;;;;;;;18.17;8.88;;;;;;;;;;5076394;28;20043;-86
2021/10/28 17:35:19;;;;;;;18.63;7.90;;;;;;;;;;5073736;28;20028;-86
2021/10/28 17:37:44;;;;;;;18.60;7.65;;;;;;;;;;5073831;28;20024;-86
2021/10/28 17:40:10;;;;;;;13.90;8.55;;;;;;;;;;5071484;28;20024;-86
2021/10/28 17:42:35;;;;;;;17.60;8.90;;;;;;;;;;5072498;28;20031;-86
2021/10/28 17:45:03;;;;;;;28.02;9.40;;;;;;;;;;5071555;28;20031;-86
2021/10/28 17:47:29;;;;;;;19.27;10.68;;;;;;;;;;5072297;28;20557;-87
2021/10/28 17:49:56;;;;;;;27.80;10.98;;;;;;;;;;5090050;28;20066;-86
2021/10/28 17:52:22;;;;;;;16.95;9.27;;;;;;;;;;5093592;28;20024;-86
2021/10/28 17:54:48;;;;;;;17.77;10.55;;;;;;;;;;5093351;28;20055;-86
2021/10/28 17:57:14;;;;;;;29.20;11.88;;;;;;;;;;5092966;28;20124;-86
2021/10/28 17:59:42;;;;;;;17.88;11.30;;;;;;;;;;5093470;28;20024;-87
2021/10/28 18:02:10;;;;;;;20.23;10.43;;;;;;;;;;5093164;28;20034;-86
2021/10/28 18:04:35;;;;;;;15.60;9.35;;;;;;;;;;5095848;28;20024;-86
2021/10/28 18:07:02;;;;;;;15.73;7.85;;;;;;;;;;5093552;28;20026;-86
2021/10/28 18:09:28;;;;;;;16.52;7.70;;;;;;;;;;5091872;28;20024;-85
2021/10/28 18:11:57;;;;;;;15.57;7.88;;;;;;;;;;5094399;28;20065;-85
2021/10/28 18:14:27;;;;;;;13.85;8.57;;;;;;;;;;5098130;28;20036;-86
2021/10/28 18:16:54;;;;;;;14.23;7.82;;;;;;;;;;5097691;28;20020;-86
2021/10/28 18:19:20;;;;;;;14.50;7.68;;;;;;;;;;5097435;28;20031;-85
2021/10/28 18:21:51;;;;;;;20.10;9.65;;;;;;;;;;5096908;28;20024;-86
2021/10/28 18:24:17;;;;;;;16.50;8.82;;;;;;;;;;5096088;28;20039;-85
2021/10/28 18:26:42;;;;;;;20.25;9.65;;;;;;;;;;5096511;28;20020;-86
2021/10/28 18:29:08;;;;;;;14.82;9.15;;;;;;;;;;5095412;28;20097;-86
2021/10/28 18:31:34;;;;;;;20.30;8.38;;;;;;;;;;5091783;28;20487;-85
2021/10/28 18:34:05;;;;;;;19.40;9.50;;;;;;;;;;5074672;28;20024;-85
2021/10/28 18:36:32;;;;;;;19.17;8.60;;;;;;;;;;5076217;28;20093;-86
2021/10/28 18:38:58;;;;;;;17.88;8.82;;;;;;;;;;5074642;28;20078;-85
2021/10/28 18:41:25;;;;;;;18.70;9.20;;;;;;;;;;5085947;28;20028;-85
2021/10/28 18:43:52;;;;;;;16.67;9.60;;;;;;;;;;5096197;28;20107;-86
2021/10/28 18:46:21;;;;;;;16.67;9.63;;;;;;;;;;5096061;28;20474;-86
2021/10/28 18:48:57;;;;;;;23.48;9.60;;;;;;;;;;5094859;28;20504;-87
2021/10/28 18:51:22;;;;;;;15.95;10.77;;;;;;;;;;5094928;28;20028;-86
2021/10/28 18:53:51;;;;;;;21.17;9.73;;;;;;;;;;5096553;28;20020;-85
2021/10/28 18:56:17;;;;;;;21.65;10.05;;;;;;;;;;5077607;28;20016;-87
2021/10/28 18:58:43;;;;;;;21.88;10.23;;;;;;;;;;5095063;28;20483;-85
2021/10/28 19:01:10;;;;;;;19.10;9.52;;;;;;;;;;5096106;28;20084;-86
2021/10/28 19:03:39;;;;;;;18.85;10.32;;;;;;;;;;5095798;28;20054;-86
2021/10/28 19:06:05;;;;;;;17.52;10.13;;;;;;;;;;5082858;28;20029;-87
2021/10/28 19:08:32;;;;;;;18.70;10.65;;;;;;;;;;5075528;28;20023;-87
2021/10/28 19:10:59;;;;;;;22.83;11.18;;;;;;;;;;5074951;28;20025;-86
2021/10/28 19:13:25;;;;;;;28.08;11.25;;;;;;;;;;5074353;28;20032;-86
2021/10/28 19:15:50;;;;;;;25.85;14.23;;;;;;;;;;5079768;28;20024;-87
2021/10/28 19:18:16;;;;;;;27.73;13.45;;;;;;;;;;5078184;28;20024;-86
2021/10/28 19:20:41;;;;;;;27.23;13.13;;;;;;;;;;5078228;28;20026;-87
2021/10/28 19:23:07;;;;;;;21.60;12.02;;;;;;;;;;5100439;28;20076;-86
2021/10/28 19:25:34;;;;;;;26.55;13.35;;;;;;;;;;5095297;28;20024;-87
2021/10/28 19:28:00;;;;;;;28.55;12.18;;;;;;;;;;5084009;28;20039;-86
2021/10/28 19:30:33;;;;;;;25.40;12.48;;;;;;;;;;5097779;28;20049;-87
2021/10/28 19:33:02;;;;;;;26.73;14.38;;;;;;;;;;5095803;28;20027;-86
2021/10/28 19:35:30;;;;;;;25.35;12.98;;;;;;;;;;5094464;28;20032;-86
2021/10/28 19:41:01;;;;;;;29.50;14.55;;;;;;;;;;5023131;28;20040;-86
2021/10/28 19:46:13;;;;;;;28.80;15.68;;;;;;;;;;5095378;28;20240;-86
2021/10/28 19:48:40;;;;;;;28.55;15.32;;;;;;;;;;5096999;28;20023;-85
2021/10/28 19:51:07;;;;;;;36.08;16.02;;;;;;;;;;5094962;28;20098;-86
2021/10/28 19:53:33;;;;;;;30.33;14.98;;;;;;;;;;5094160;28;20493;-86
2021/10/28 19:56:08;;;;;;;32.03;15.15;;;;;;;;;;5093552;28;20024;-86
2021/10/28 19:58:42;;;;;;;31.45;15.88;;;;;;;;;;5082965;28;20119;-86
2021/10/28 20:01:53;;;;;;;35.22;15.27;;;;;;;;;;5073375;28;20107;-86
2021/10/28 20:20:19;;;;;;;31.27;16.52;;;;;;;;;;5094641;28;20031;-86
2021/10/28 20:22:47;;;;;;;32.75;16.67;;;;;;;;;;5093030;28;20028;-87
2021/10/28 20:25:25;;;;;;;30.40;16.02;;;;;;;;;;5093156;28;20032;-85
2021/10/28 20:27:52;;;;;;;33.28;17.35;;;;;;;;;;5093512;28;20119;-87
2021/10/28 20:30:21;;;;;;;34.80;16.48;;;;;;;;;;5092927;28;20028;-86
2021/10/28 20:32:47;;;;;;;38.03;17.48;;;;;;;;;;5093818;28;20032;-87
2021/10/28 20:35:27;;;;;;;32.53;16.98;;;;;;;;;;5092827;28;20054;-87
2021/10/28 20:37:55;;;;;;;36.38;16.42;;;;;;;;;;5093126;28;20049;-87
2021/10/28 20:40:21;;;;;;;30.25;17.20;;;;;;;;;;5094128;28;20372;-87
2021/10/28 20:42:49;;;;;;;34.45;17.98;;;;;;;;;;5084584;28;20058;-87
2021/10/28 20:45:26;;;;;;;35.17;17.38;;;;;;;;;;5072307;28;20020;-87
2021/10/28 20:47:53;;;;;;;30.48;15.05;;;;;;;;;;5072713;28;20090;-87
2021/10/28 20:50:22;;;;;;;33.75;17.45;;;;;;;;;;5072334;28;20048;-86
2021/10/28 20:52:48;;;;;;;32.67;17.65;;;;;;;;;;5073615;28;20088;-86
2021/10/28 20:55:14;;;;;;;34.45;16.73;;;;;;;;;;5072383;28;20051;-87
2021/10/28 20:57:40;;;;;;;33.58;18.00;;;;;;;;;;5072496;28;20024;-87
2021/10/28 21:00:09;;;;;;;34.80;17.58;;;;;;;;;;5072441;28;20046;-86
2021/10/28 21:02:36;;;;;;;30.48;16.70;;;;;;;;;;5073231;28;20067;-86
2021/10/28 21:05:09;;;;;;;31.23;17.33;;;;;;;;;;5088637;28;20028;-86
2021/10/28 21:07:35;;;;;;;;;;;;;;;;;;5092973;28;20028;-87
2021/10/28 21:10:00;;;;;;;31.35;15.15;;;;;;;;;;5092287;28;19908;-87
2021/10/28 21:12:26;;;;;;;31.60;16.73;;;;;;;;;;5091783;28;20050;-86
2021/10/28 21:14:51;;;;;;;29.15;16.05;;;;;;;;;;5092238;28;20028;-88
2021/10/28 21:17:16;;;;;;;38.70;16.38;;;;;;;;;;5093103;28;20024;-86
2021/10/28 21:19:44;;;;;;;34.05;17.15;;;;;;;;;;5091693;28;20031;-87
2021/10/28 21:22:10;;;;;;;34.50;16.33;;;;;;;;;;5093256;28;20394;-87
2021/10/28 21:24:38;;;;;;;31.00;16.00;;;;;;;;;;5092077;28;20020;-87
2021/10/28 21:27:04;;;;;;;34.28;16.73;;;;;;;;;;5093005;28;20601;-87
2021/10/28 21:29:30;;;;;;;33.85;16.35;;;;;;;;;;5092993;28;20031;-87
2021/10/28 21:31:55;;;;;;;35.78;18.02;;;;;;;;;;5092765;28;20024;-86
2021/10/28 21:34:20;;;;;;;29.15;17.15;;;;;;;;;;5092923;28;20020;-87
2021/10/28 21:36:47;;;;;;;32.92;16.65;;;;;;;;;;5091652;28;20039;-86
2021/10/28 21:39:12;;;;;;;31.70;17.02;;;;;;;;;;5093256;28;20016;-87
2021/10/28 21:41:38;;;;;;;30.50;17.42;;;;;;;;;;5092865;28;20402;-86
2021/10/28 21:44:04;;;;;;;36.53;18.13;;;;;;;;;;5092795;28;20027;-87
2021/10/28 21:46:34;;;;;;;33.10;17.25;;;;;;;;;;5093109;28;20024;-86
2021/10/28 21:49:00;;;;;;;30.75;16.67;;;;;;;;;;5091041;28;20031;-87
2021/10/28 21:51:26;;;;;;;36.42;18.77;;;;;;;;;;5085486;28;20024;-86
2021/10/28 21:53:52;;;;;;;35.55;18.92;;;;;;;;;;5072883;28;20765;-86
2021/10/28 21:56:35;;;;;;;37.17;18.17;;;;;;;;;;5072590;28;20052;-86
2021/10/28 21:59:25;;;;;;;36.38;17.90;;;;;;;;;;5081927;28;20032;-87
2021/10/28 22:02:01;;;;;;;40.95;19.77;;;;;;;;;;5090440;28;20036;-86
2021/10/28 22:24:08;;;;;;;43.17;20.13;;;;;;;;;;5092561;28;20116;-86
2021/10/28 22:24:23;;;;;;;47.63;22.55;;;;;;;;;;5050494;28;20032;-85
2021/10/28 22:26:48;;;;;;;43.80;21.65;;;;;;;;;;5050170;28;20036;-86
2021/10/28 22:29:14;;;;;;;42.92;21.70;;;;;;;;;;5071537;28;20035;-86
2021/10/28 22:31:39;;;;;;;47.78;22.80;;;;;;;;;;5091289;28;20016;-87
2021/10/28 22:34:05;;;;;;;43.33;23.08;;;;;;;;;;5091139;28;20073;-87
2021/10/28 22:36:40;;;;;;;42.47;21.50;;;;;;;;;;5106921;28;20036;-86
2021/10/28 22:39:11;;;;;;;49.17;24.15;;;;;;;;;;5091162;28;20032;-86
2021/10/28 22:41:36;;;;;;;46.67;22.33;;;;;;;;;;5092594;28;20024;-86
2021/10/28 22:44:02;;;;;;;46.67;22.83;;;;;;;;;;5072296;28;20025;-86
2021/10/28 22:46:27;;;;;;;47.70;21.83;;;;;;;;;;5070858;28;20029;-86
2021/10/28 22:48:52;;;;;;;51.53;22.58;;;;;;;;;;5072071;28;20038;-87
2021/10/28 22:51:18;;;;;;;48.30;22.08;;;;;;;;;;5070796;28;20032;-86
2021/10/28 22:53:43;;;;;;;47.63;23.40;;;;;;;;;;5070952;28;20035;-86
2021/10/28 22:56:10;;;;;;;51.03;23.35;;;;;;;;;;5072007;28;20025;-86
2021/10/28 22:58:37;;;;;;;50.95;22.45;;;;;;;;;;5070660;28;20047;-86
2021/10/28 23:14:40;;;;;;;49.15;22.20;;;;;;;;;;5075708;28;20067;-86
2021/10/28 23:22:33;;;;;;;51.80;23.67;;;;;;;;;;5081241;28;20073;-85
2021/10/28 23:24:58;;;;;;;51.05;26.48;;;;;;;;;;5094392;28;20016;-86
2021/10/28 23:27:23;;;;;;;58.28;23.75;;;;;;;;;;5094252;28;20085;-86
2021/10/28 23:29:49;;;;;;;48.03;22.55;;;;;;;;;;5095438;28;20020;-86